createdAt,value
2019-04-11T00:02:16.411Z,99.90
2019-04-11T00:04:44.206Z,99.90
2019-04-11T00:07:12.057Z,99.90
2019-04-11T00:09:40.796Z,99.90
2019-04-11T00:12:10.413Z,99.90
2019-04-11T00:14:38.136Z,99.90
2019-04-11T00:17:05.848Z,99.90
2019-04-11T00:19:33.634Z,99.90
2019-04-11T00:22:01.490Z,99.90
2019-04-11T00:24:29.271Z,99.90
2019-04-11T00:26:57.264Z,99.90
2019-04-11T00:29:24.568Z,99.90
2019-04-11T00:31:52.780Z,99.90
2019-04-11T00:34:20.620Z,99.90
2019-04-11T00:36:48.495Z,99.90
2019-04-11T00:39:16.381Z,99.90
2019-04-11T00:41:44.322Z,99.90
2019-04-11T00:44:11.696Z,99.90
2019-04-11T00:46:40.509Z,99.90
2019-04-11T00:49:08.251Z,99.90
2019-04-11T00:51:38.526Z,99.90
2019-04-11T00:54:06.703Z,99.90
2019-04-11T00:56:34.654Z,99.90
2019-04-11T00:59:02.486Z,99.90
2019-04-11T01:01:31.518Z,99.90
2019-04-11T01:04:01.367Z,99.90
2019-04-11T01:06:30.017Z,99.90
2019-04-11T01:09:04.284Z,99.90
2019-04-11T01:11:32.115Z,99.90
2019-04-11T01:13:59.644Z,99.90
2019-04-11T01:16:52.730Z,99.90
2019-04-11T01:19:20.513Z,99.90
2019-04-11T01:21:48.786Z,99.90
2019-04-11T01:24:16.322Z,99.90
2019-04-11T01:26:43.982Z,99.90
2019-04-11T01:29:11.461Z,99.90
2019-04-11T01:31:39.910Z,99.90
2019-04-11T01:34:08.498Z,99.90
2019-04-11T01:36:37.313Z,99.90
2019-04-11T01:39:21.469Z,99.90
2019-04-11T01:41:48.880Z,99.90
2019-04-11T01:44:16.523Z,99.90
2019-04-11T01:46:44.435Z,99.90
2019-04-11T01:49:19.797Z,99.90
2019-04-11T01:51:47.632Z,99.90
2019-04-11T01:54:15.339Z,99.90
2019-04-11T01:56:42.816Z,99.90
2019-04-11T01:59:11.032Z,99.90
2019-04-11T02:01:56.973Z,99.90
2019-04-11T02:04:34.173Z,99.90
2019-04-11T02:07:02.526Z,99.90
2019-04-11T02:09:32.441Z,99.90
2019-04-11T02:11:59.896Z,99.90
2019-04-11T02:14:28.006Z,99.90
2019-04-11T02:16:55.593Z,99.90
2019-04-11T02:19:23.870Z,99.90
2019-04-11T02:21:53.769Z,99.90
2019-04-11T02:24:39.777Z,99.90
2019-04-11T02:27:16.894Z,99.90
2019-04-11T02:29:44.818Z,99.90
2019-04-11T02:32:12.841Z,99.90
2019-04-11T02:34:40.347Z,99.90
2019-04-11T02:37:09.156Z,99.90
2019-04-11T02:39:36.472Z,99.90
2019-04-11T02:42:04.179Z,99.90
2019-04-11T02:44:46.149Z,99.90
2019-04-11T02:47:08.346Z,99.90
2019-04-11T02:49:31.202Z,99.90
2019-04-11T02:52:00.841Z,99.90
2019-04-11T02:54:30.439Z,99.90
2019-04-11T02:56:59.872Z,99.90
2019-04-11T02:59:29.310Z,99.90
2019-04-11T03:01:58.190Z,99.90
2019-04-11T03:04:26.995Z,99.90
2019-04-11T03:06:55.427Z,99.90
2019-04-11T03:09:24.160Z,99.90
2019-04-11T03:11:51.773Z,99.90
2019-04-11T03:14:20.745Z,99.90
2019-04-11T03:16:59.013Z,99.90
2019-04-11T03:19:35.171Z,99.90
2019-04-11T03:21:47.546Z,99.90
2019-04-11T03:24:15.563Z,99.90
2019-04-11T03:26:45.569Z,99.90
2019-04-11T03:29:13.526Z,99.90
2019-04-11T03:32:20.413Z,99.90
2019-04-11T03:39:27.763Z,99.90
2019-04-11T03:41:54.652Z,99.90
2019-04-11T03:44:16.638Z,99.90
2019-04-11T03:46:52.440Z,99.90
2019-04-11T03:49:24.018Z,99.90
2019-04-11T03:51:39.293Z,99.90
2019-04-11T03:54:09.612Z,99.90
2019-04-11T03:56:38.900Z,99.90
2019-04-11T03:59:08.443Z,99.90
2019-04-11T04:01:37.979Z,99.90
2019-04-11T04:04:06.610Z,99.90
2019-04-11T04:06:34.541Z,99.90
2019-04-11T04:09:04.237Z,99.90
2019-04-11T04:11:34.258Z,99.90
2019-04-11T04:14:19.842Z,99.90
2019-04-11T04:17:06.950Z,99.90
2019-04-11T04:19:54.478Z,99.90
2019-04-11T04:22:49.623Z,99.90
2019-04-11T04:25:16.654Z,99.90
2019-04-11T04:27:45.067Z,99.90
2019-04-11T04:30:15.422Z,99.90
2019-04-11T04:32:42.946Z,99.90
2019-04-11T04:35:15.637Z,99.90
2019-04-11T04:37:43.128Z,99.90
2019-04-11T04:40:28.319Z,99.90
2019-04-11T04:42:47.766Z,99.90
2019-04-11T04:45:12.385Z,99.90
2019-04-11T04:47:47.790Z,99.90
2019-04-11T04:50:10.899Z,99.90
2019-04-11T04:52:39.004Z,99.90
2019-04-11T04:55:10.695Z,99.90
2019-04-11T04:57:42.938Z,99.90
2019-04-11T05:00:18.869Z,99.90
2019-04-11T05:02:47.905Z,99.90
2019-04-11T05:05:15.759Z,99.90
2019-04-11T05:07:46.300Z,99.90
2019-04-11T05:10:13.463Z,99.90
2019-04-11T05:12:41.818Z,99.90
2019-04-11T05:15:10.072Z,99.90
2019-04-11T05:17:38.686Z,99.90
2019-04-11T05:20:06.982Z,99.90
2019-04-11T05:22:35.221Z,99.90
2019-04-11T05:25:03.891Z,99.90
2019-04-11T05:27:32.177Z,99.90
2019-04-11T05:30:00.709Z,99.90
2019-04-11T05:32:29.189Z,99.90
2019-04-11T05:34:56.624Z,99.90
2019-04-11T05:37:24.401Z,99.90
2019-04-11T05:39:52.522Z,99.90
2019-04-11T05:42:25.016Z,99.90
2019-04-11T05:44:50.020Z,99.90
2019-04-11T05:47:19.711Z,99.90
2019-04-11T05:49:52.693Z,99.90
2019-04-11T05:52:20.002Z,99.90
2019-04-11T05:54:51.073Z,99.90
2019-04-11T05:57:23.730Z,99.90
2019-04-11T05:59:50.918Z,99.90
2019-04-11T06:02:33.209Z,99.90
2019-04-11T06:05:09.024Z,99.90
2019-04-11T06:07:57.540Z,99.90
2019-04-11T06:10:31.016Z,99.90
2019-04-11T06:13:20.937Z,99.90
2019-04-11T06:15:51.398Z,99.90
2019-04-11T06:18:54.349Z,99.90
2019-04-11T06:21:36.628Z,99.90
2019-04-11T06:24:22.296Z,99.90
2019-04-11T06:27:01.619Z,99.90
2019-04-11T06:29:34.858Z,99.90
2019-04-11T06:32:19.564Z,99.90
2019-04-11T06:34:55.967Z,99.90
2019-04-11T06:37:54.275Z,99.90
2019-04-11T06:40:27.679Z,99.90
2019-04-11T06:43:11.911Z,99.90
2019-04-11T06:45:52.428Z,99.90
2019-04-11T06:48:45.582Z,99.90
2019-04-11T06:51:17.229Z,99.90
2019-04-11T06:53:48.483Z,97.40
2019-04-11T06:56:27.310Z,98.90
2019-04-11T06:58:59.608Z,99.90
2019-04-11T07:01:28.385Z,99.90
2019-04-11T07:04:00.849Z,98.20
2019-04-11T07:06:31.413Z,96.90
2019-04-11T07:09:17.149Z,96.00
2019-04-11T07:11:50.750Z,94.60
2019-04-11T07:14:27.530Z,95.90
2019-04-11T07:17:15.442Z,95.80
2019-04-11T07:20:14.530Z,94.00
2019-04-11T07:22:59.874Z,94.20
2019-04-11T07:25:45.127Z,97.30
2019-04-11T07:28:41.680Z,91.60
2019-04-11T07:31:30.067Z,95.40
2019-04-11T07:34:21.179Z,92.90
2019-04-11T07:37:07.418Z,90.20
2019-04-11T07:39:52.921Z,85.80
2019-04-11T07:42:47.279Z,80.00
2019-04-11T07:45:20.965Z,77.00
2019-04-11T07:47:52.694Z,73.90
2019-04-11T07:50:21.252Z,67.70
2019-04-11T07:52:56.098Z,65.60
2019-04-11T07:55:24.365Z,67.10
2019-04-11T07:58:11.587Z,71.00
2019-04-11T08:01:01.653Z,68.50
2019-04-11T08:03:49.685Z,65.80
2019-04-11T08:06:30.977Z,67.40
2019-04-11T08:09:17.671Z,68.10
2019-04-11T08:11:53.276Z,64.70
2019-04-11T08:14:35.246Z,66.50
2019-04-11T08:17:27.028Z,65.20
2019-04-11T08:20:03.553Z,64.90
2019-04-11T08:22:41.412Z,65.90
2019-04-11T08:25:41.884Z,67.90
2019-04-11T08:28:13.860Z,61.70
2019-04-11T08:31:11.664Z,59.90
2019-04-11T08:33:39.106Z,59.80
2019-04-11T08:36:26.153Z,61.80
2019-04-11T08:38:53.419Z,56.90
2019-04-11T08:41:31.637Z,57.40
2019-04-11T08:44:02.141Z,55.70
2019-04-11T08:46:35.118Z,55.70
2019-04-11T08:49:05.656Z,52.90
2019-04-11T08:51:33.614Z,53.90
2019-04-11T08:54:31.411Z,52.80
2019-04-11T08:56:59.170Z,51.20
2019-04-11T08:59:54.531Z,52.00
2019-04-11T09:02:47.694Z,51.80
2019-04-11T09:05:29.134Z,50.30
2019-04-11T09:08:25.192Z,50.20
2019-04-11T09:11:16.970Z,50.30
2019-04-11T09:14:04.257Z,51.40
2019-04-11T09:17:01.774Z,51.90
2019-04-11T09:19:43.690Z,53.60
2019-04-11T09:22:37.284Z,51.50
2019-04-11T09:25:28.961Z,50.90
2019-04-11T09:28:17.832Z,48.60
2019-04-11T09:31:01.234Z,50.90
2019-04-11T09:33:57.606Z,48.60
2019-04-11T09:36:55.442Z,46.30
2019-04-11T09:39:45.518Z,47.50
2019-04-11T09:42:32.427Z,46.90
2019-04-11T09:45:14.161Z,46.40
2019-04-11T09:48:13.849Z,46.20
2019-04-11T09:50:56.673Z,45.60
2019-04-11T09:53:28.190Z,45.30
2019-04-11T09:56:13.095Z,45.30
2019-04-11T09:58:42.118Z,46.20
2019-04-11T10:01:35.259Z,46.90
2019-04-11T10:04:03.688Z,45.70
2019-04-11T10:07:01.692Z,45.10
2019-04-11T10:09:44.594Z,46.30
2019-04-11T10:12:31.846Z,47.30
2019-04-11T10:14:59.773Z,46.60
2019-04-11T10:17:46.639Z,45.70
2019-04-11T10:20:16.180Z,47.50
2019-04-11T10:23:01.422Z,47.20
2019-04-11T10:25:32.107Z,46.00
2019-04-11T10:28:25.363Z,44.90
2019-04-11T10:31:12.634Z,46.50
2019-04-11T10:33:53.204Z,45.50
2019-04-11T10:36:25.390Z,44.90
2019-04-11T10:39:05.843Z,43.40
2019-04-11T10:41:35.272Z,44.30
2019-04-11T10:44:03.338Z,43.30
2019-04-11T10:46:44.517Z,43.70
2019-04-11T10:49:20.451Z,42.60
2019-04-11T10:51:58.195Z,41.10
2019-04-11T10:54:26.078Z,40.80
2019-04-11T10:57:11.929Z,39.60
2019-04-11T10:59:40.699Z,39.40
2019-04-11T11:02:31.656Z,37.80
2019-04-11T11:04:59.121Z,39.20
2019-04-11T11:07:29.290Z,37.10
2019-04-11T11:10:03.198Z,39.10
2019-04-11T11:13:08.075Z,36.70
2019-04-11T11:15:47.925Z,36.30
2019-04-11T11:19:03.658Z,37.00
2019-04-11T11:21:14.337Z,36.10
2019-04-11T11:24:00.690Z,34.30
2019-04-11T11:26:33.859Z,33.40
2019-04-11T11:29:15.150Z,36.30
2019-04-11T11:32:00.803Z,35.90
2019-04-11T11:34:51.271Z,34.90
2019-04-11T11:37:35.462Z,33.10
2019-04-11T11:40:29.999Z,34.10
2019-04-11T11:43:29.204Z,34.90
2019-04-11T11:46:29.786Z,36.20
2019-04-11T11:49:05.823Z,36.50
2019-04-11T11:52:08.931Z,36.90
2019-04-11T11:54:40.353Z,37.70
2019-04-11T11:57:11.404Z,37.70
2019-04-11T11:59:52.394Z,37.90
2019-04-11T12:02:24.335Z,36.10
2019-04-11T12:05:12.458Z,37.90
2019-04-11T12:07:49.556Z,38.30
2019-04-11T12:10:35.527Z,37.10
2019-04-11T12:13:23.139Z,38.70
2019-04-11T12:16:01.625Z,39.40
2019-04-11T12:18:47.194Z,40.00
2019-04-11T12:21:16.324Z,40.50
2019-04-11T12:24:06.099Z,38.90
2019-04-11T12:26:34.308Z,39.20
2019-04-11T12:29:36.428Z,39.80
2019-04-11T12:32:06.258Z,37.90
2019-04-11T12:34:38.791Z,38.50
2019-04-11T12:37:10.546Z,37.40
2019-04-11T12:40:15.855Z,39.30
2019-04-11T12:42:43.298Z,38.20
2019-04-11T12:45:36.547Z,39.30
2019-04-11T12:48:04.031Z,38.40
2019-04-11T12:50:49.532Z,38.40
2019-04-11T12:53:18.719Z,37.20
2019-04-11T12:56:06.950Z,40.60
2019-04-11T12:58:56.319Z,38.90
2019-04-11T13:01:55.500Z,39.90
2019-04-11T13:04:29.946Z,39.10
2019-04-11T13:07:16.859Z,39.70
2019-04-11T13:09:50.329Z,39.00
2019-04-11T13:12:35.084Z,39.00
2019-04-11T13:15:14.639Z,39.90
2019-04-11T13:17:45.960Z,38.90
2019-04-11T13:20:47.821Z,40.30
2019-04-11T13:23:43.625Z,41.00
2019-04-11T13:26:29.683Z,40.20
2019-04-11T13:29:09.652Z,41.30
2019-04-11T13:32:02.666Z,41.60
2019-04-11T13:34:29.847Z,41.20
2019-04-11T13:37:15.240Z,43.00
2019-04-11T13:39:46.664Z,44.00
2019-04-11T13:42:39.593Z,44.30
2019-04-11T13:45:10.127Z,43.20
2019-04-11T13:47:59.669Z,41.80
2019-04-11T13:50:27.616Z,42.50
2019-04-11T13:53:20.267Z,42.70
2019-04-11T13:55:47.517Z,43.50
2019-04-11T13:58:40.382Z,44.30
2019-04-11T14:01:10.722Z,44.80
2019-04-11T14:03:57.987Z,46.00
2019-04-11T14:06:27.191Z,45.70
2019-04-11T14:09:17.161Z,45.00
2019-04-11T14:11:49.629Z,45.10
2019-04-11T14:14:36.561Z,44.90
2019-04-11T14:17:21.767Z,45.50
2019-04-11T14:20:08.840Z,45.30
2019-04-11T14:23:02.336Z,45.80
2019-04-11T14:25:48.166Z,45.80
2019-04-11T14:28:15.828Z,46.40
2019-04-11T14:30:52.576Z,47.10
2019-04-11T14:33:23.575Z,46.90
2019-04-11T14:36:07.514Z,46.70
2019-04-11T14:38:45.621Z,45.90
2019-04-11T14:41:32.702Z,46.50
2019-04-11T14:44:01.813Z,47.00
2019-04-11T14:46:47.989Z,46.70
2019-04-11T14:49:16.490Z,47.80
2019-04-11T14:52:02.324Z,48.00
2019-04-11T14:54:35.262Z,47.10
2019-04-11T14:57:10.480Z,47.00
2019-04-11T14:59:43.900Z,47.50
2019-04-11T15:02:25.686Z,46.80
2019-04-11T15:07:43.766Z,47.50
2019-04-11T15:10:30.147Z,47.10
2019-04-11T15:12:57.403Z,47.20
2019-04-11T15:15:33.655Z,46.50
2019-04-11T15:18:02.564Z,46.70
2019-04-11T15:21:01.461Z,47.30
2019-04-11T15:23:31.356Z,47.50
2019-04-11T15:26:24.063Z,46.50
2019-04-11T15:28:54.094Z,46.60
2019-04-11T15:31:58.931Z,46.60
2019-04-11T15:34:52.900Z,46.60
2019-04-11T15:37:57.928Z,47.40
2019-04-11T15:40:46.673Z,47.90
2019-04-11T15:43:42.126Z,47.90
2019-04-11T15:46:12.083Z,47.50
2019-04-11T15:49:01.669Z,47.80
2019-04-11T15:51:43.168Z,48.10
2019-04-11T15:54:34.811Z,48.40
2019-04-11T15:57:12.208Z,49.10
2019-04-11T15:59:57.800Z,48.70
2019-04-11T16:02:37.258Z,49.00
2019-04-11T16:05:22.608Z,48.60
2019-04-11T16:08:15.882Z,49.10
2019-04-11T16:10:49.951Z,49.80
2019-04-11T16:13:29.517Z,50.00
2019-04-11T16:16:06.423Z,50.20
2019-04-11T16:18:49.497Z,51.10
2019-04-11T16:21:23.945Z,51.10
2019-04-11T16:23:59.789Z,50.00
2019-04-11T16:26:37.397Z,50.10
2019-04-11T16:29:18.352Z,50.20
2019-04-11T16:31:46.159Z,50.80
2019-04-11T16:34:30.893Z,50.90
2019-04-11T16:37:01.003Z,50.50
2019-04-11T16:39:55.162Z,50.70
2019-04-11T16:42:35.118Z,51.30
2019-04-11T16:45:24.996Z,51.90
2019-04-11T16:48:12.023Z,52.10
2019-04-11T16:50:39.512Z,51.90
2019-04-11T16:53:10.540Z,52.10
2019-04-11T16:55:36.863Z,52.10
2019-04-11T16:58:04.921Z,52.40
2019-04-11T17:00:32.445Z,52.20
2019-04-11T17:02:59.692Z,52.00
2019-04-11T17:05:27.084Z,52.30
2019-04-11T17:08:03.894Z,52.80
2019-04-11T17:10:49.498Z,53.50
2019-04-11T17:13:16.875Z,53.80
2019-04-11T17:15:44.332Z,53.60
2019-04-11T17:18:11.495Z,54.10
2019-04-11T17:20:39.700Z,54.10
2019-04-11T17:23:07.379Z,54.50
2019-04-11T17:25:35.588Z,54.20
2019-04-11T17:28:03.190Z,54.70
2019-04-11T17:30:30.788Z,55.00
2019-04-11T17:32:58.551Z,55.20
2019-04-11T17:35:26.025Z,55.20
2019-04-11T17:37:54.655Z,55.80
2019-04-11T17:40:23.974Z,55.90
2019-04-11T17:42:51.922Z,56.60
2019-04-11T17:45:21.083Z,56.70
2019-04-11T17:47:48.403Z,56.80
2019-04-11T17:50:16.768Z,57.10
2019-04-11T17:52:43.997Z,56.80
2019-04-11T17:55:11.491Z,56.90
2019-04-11T17:57:39.381Z,56.70
2019-04-11T18:00:11.525Z,57.90
2019-04-11T18:02:41.274Z,58.40
2019-04-11T18:05:08.886Z,58.20
2019-04-11T18:07:37.461Z,59.00
2019-04-11T18:10:05.472Z,59.90
2019-04-11T18:12:32.721Z,59.90
2019-04-11T18:15:02.254Z,60.40
2019-04-11T18:17:29.162Z,61.00
2019-04-11T18:19:56.433Z,61.60
2019-04-11T18:22:23.779Z,61.60
2019-04-11T18:24:50.949Z,61.30
2019-04-11T18:27:21.536Z,62.00
2019-04-11T18:29:47.855Z,62.40
2019-04-11T18:32:15.212Z,64.10
2019-04-11T18:34:42.492Z,64.30
2019-04-11T18:37:09.978Z,65.00
2019-04-11T18:39:37.145Z,65.40
2019-04-11T18:42:04.890Z,66.10
2019-04-11T18:44:32.151Z,66.50
2019-04-11T18:46:59.640Z,67.10
2019-04-11T18:49:27.128Z,68.20
2019-04-11T18:51:54.412Z,68.20
2019-04-11T18:54:21.823Z,69.50
2019-04-11T18:56:49.142Z,71.00
2019-04-11T18:59:16.717Z,70.90
2019-04-11T19:01:43.989Z,71.30
2019-04-11T19:04:12.038Z,72.70
2019-04-11T19:06:42.508Z,73.00
2019-04-11T19:09:14.203Z,73.30
2019-04-11T19:11:41.346Z,73.90
2019-04-11T19:14:08.851Z,74.60
2019-04-11T19:16:36.110Z,75.00
2019-04-11T19:19:03.761Z,75.30
2019-04-11T19:21:31.267Z,75.60
2019-04-11T19:23:58.660Z,76.30
2019-04-11T19:26:26.034Z,77.40
2019-04-11T19:28:55.126Z,79.00
2019-04-11T19:31:22.550Z,80.20
2019-04-11T19:33:49.924Z,80.60
2019-04-11T19:36:17.174Z,82.00
2019-04-11T19:38:44.560Z,82.10
2019-04-11T19:41:12.012Z,83.80
2019-04-11T19:43:40.848Z,84.20
2019-04-11T19:46:08.174Z,86.90
2019-04-11T19:48:35.546Z,87.00
2019-04-11T19:51:02.931Z,88.40
2019-04-11T19:53:32.725Z,89.90
2019-04-11T19:56:13.408Z,90.40
2019-04-11T19:58:40.671Z,90.70
2019-04-11T20:01:08.765Z,91.70
2019-04-11T20:03:35.939Z,90.30
2019-04-11T20:06:03.614Z,91.00
2019-04-11T20:08:31.158Z,92.40
2019-04-11T20:11:00.998Z,93.10
2019-04-11T20:13:32.022Z,93.20
2019-04-11T20:15:58.367Z,94.20
2019-04-11T20:18:30.875Z,94.60
2019-04-11T20:20:58.111Z,94.60
2019-04-11T20:23:25.384Z,95.70
2019-04-11T20:25:52.681Z,96.10
2019-04-11T20:28:20.851Z,95.60
2019-04-11T20:30:48.150Z,96.90
2019-04-11T20:33:26.336Z,96.60
2019-04-11T20:35:47.835Z,97.80
2019-04-11T20:38:18.915Z,97.70
2019-04-11T20:40:52.110Z,98.40
2019-04-11T20:43:18.230Z,98.40
2019-04-11T20:45:45.373Z,98.90
2019-04-11T20:48:12.775Z,98.80
2019-04-11T20:50:39.919Z,99.80
2019-04-11T20:53:12.643Z,99.80
2019-04-11T20:55:39.055Z,99.90
2019-04-11T20:58:09.809Z,99.90
2019-04-11T21:00:35.182Z,99.90
2019-04-11T21:03:02.556Z,99.90
2019-04-11T21:05:30.986Z,99.90
2019-04-11T21:08:03.095Z,99.90
2019-04-11T21:10:31.924Z,99.90
2019-04-11T21:12:59.091Z,99.90
2019-04-11T21:15:26.258Z,99.90
2019-04-11T21:17:56.109Z,99.90
2019-04-11T21:20:23.867Z,99.90
2019-04-11T21:22:53.879Z,99.90
2019-04-11T21:25:20.972Z,99.90
2019-04-11T21:27:48.239Z,99.90
2019-04-11T21:30:15.829Z,99.90
2019-04-11T21:32:43.035Z,99.90
2019-04-11T21:35:10.505Z,99.90
2019-04-11T21:37:37.777Z,99.90
2019-04-11T21:40:05.697Z,99.90
2019-04-11T21:42:35.845Z,99.90
2019-04-11T21:45:05.955Z,99.90
2019-04-11T21:47:39.440Z,99.90
2019-04-11T21:50:09.603Z,99.90
2019-04-11T21:52:37.313Z,99.90
2019-04-11T21:55:04.898Z,99.90
2019-04-11T21:57:32.251Z,99.90
2019-04-11T22:00:01.551Z,99.90
2019-04-11T22:02:29.017Z,99.90
2019-04-11T22:04:58.503Z,99.90
2019-04-11T22:07:25.664Z,99.90
2019-04-11T22:09:52.947Z,99.90
2019-04-11T22:12:27.338Z,99.90
2019-04-11T22:14:54.683Z,99.90
2019-04-11T22:17:21.942Z,99.90
2019-04-11T22:19:49.314Z,99.90
2019-04-11T22:22:16.559Z,99.90
2019-04-11T22:24:43.716Z,99.90
2019-04-11T22:27:11.102Z,99.90
2019-04-11T22:29:38.472Z,99.90
2019-04-11T22:32:06.051Z,99.90
2019-04-11T22:34:46.151Z,99.90
2019-04-11T22:37:13.612Z,99.90
2019-04-11T22:39:40.967Z,99.90
2019-04-11T22:42:08.597Z,99.90
2019-04-11T22:44:38.006Z,99.90
2019-04-11T22:47:07.603Z,99.90
2019-04-11T22:49:36.752Z,99.90
2019-04-11T22:52:03.959Z,99.90
2019-04-11T22:54:31.102Z,99.90
2019-04-11T22:56:58.736Z,99.90
2019-04-11T22:59:25.909Z,99.90
2019-04-11T23:01:55.866Z,99.90
2019-04-11T23:04:23.227Z,99.90
2019-04-11T23:06:50.489Z,99.90
2019-04-11T23:09:19.495Z,99.90
2019-04-11T23:11:46.739Z,99.90
2019-04-11T23:14:15.968Z,99.90
2019-04-11T23:16:44.174Z,99.90
2019-04-11T23:19:14.297Z,99.90
2019-04-11T23:21:42.203Z,99.90
2019-04-11T23:24:12.055Z,99.90
2019-04-11T23:26:38.739Z,99.90
2019-04-11T23:29:06.205Z,99.90
2019-04-11T23:31:36.524Z,99.90
2019-04-11T23:34:04.846Z,99.90
2019-04-11T23:36:32.359Z,99.90
2019-04-11T23:38:59.599Z,99.90
2019-04-11T23:41:26.974Z,99.90
2019-04-11T23:43:54.337Z,99.90
2019-04-11T23:46:22.071Z,99.90
2019-04-11T23:48:54.703Z,99.90
2019-04-11T23:51:18.748Z,99.90
2019-04-11T23:53:45.926Z,99.90
2019-04-11T23:56:13.201Z,99.90
2019-04-11T23:58:40.637Z,99.90
